EZY3304 EHAM-EGPH
Flight info
| Callsign | EZY3304 |
|---|---|
| Flight time | N/A |
| Altitude | 28000 |
| Route | BERGI L602 SUPUR P1 GODOS DCT ROXAT DCT BAZNA DCT ANMAZ DCT EWOKE DCT AGPED |
| Aircraft | A20N/M-SDE2E3FGHIRWXY/LB1 |
Departure
| Time | N/A |
|---|---|
| Airport | Amsterdam Airport Schiphol (EHAM) |
Arrival
| Time | 2026-04-25 16:03 |
|---|---|
| Airport | Edinburgh Airport (EGPH) |
| Time | Latitude | Longitude | Altitude | Speed | Heading |
|---|---|---|---|---|---|
| 2026-04-25 15:00 | 52.66037 | 4.37324 | 19383 ft | 368 kts | 352° |
| 2026-04-25 15:00 | 52.68602 | 4.36913 | 20101 ft | 371 kts | 352° |
| 2026-04-25 15:01 | 52.71171 | 4.36383 | 20783 ft | 373 kts | 345° |
| 2026-04-25 15:01 | 52.73586 | 4.34897 | 21459 ft | 372 kts | 329° |
| 2026-04-25 15:01 | 52.75671 | 4.32361 | 22135 ft | 374 kts | 314° |
| 2026-04-25 15:01 | 52.77247 | 4.29000 | 22778 ft | 377 kts | 300° |
| 2026-04-25 15:02 | 52.78534 | 4.25203 | 23433 ft | 382 kts | 300° |
| 2026-04-25 15:02 | 52.79834 | 4.21346 | 24050 ft | 385 kts | 300° |
| 2026-04-25 15:02 | 52.81139 | 4.17473 | 24609 ft | 387 kts | 300° |
| 2026-04-25 15:02 | 52.82458 | 4.13565 | 25169 ft | 390 kts | 300° |
| 2026-04-25 15:03 | 52.83785 | 4.09631 | 25713 ft | 393 kts | 300° |
| 2026-04-25 15:03 | 52.85121 | 4.05664 | 26238 ft | 396 kts | 300° |
| 2026-04-25 15:03 | 52.86464 | 4.01673 | 26760 ft | 399 kts | 300° |
| 2026-04-25 15:03 | 52.87818 | 3.97645 | 27250 ft | 402 kts | 299° |
| 2026-04-25 15:04 | 52.89179 | 3.93585 | 27733 ft | 405 kts | 299° |
| 2026-04-25 15:04 | 52.90550 | 3.89489 | 27964 ft | 407 kts | 299° |
| 2026-04-25 15:04 | 52.91926 | 3.85372 | 28078 ft | 407 kts | 299° |
| 2026-04-25 15:04 | 52.93297 | 3.81264 | 28183 ft | 408 kts | 299° |
| 2026-04-25 15:05 | 52.96044 | 3.73009 | 28208 ft | 409 kts | 299° |
| 2026-04-25 15:06 | 53.00307 | 3.60729 | 28213 ft | 410 kts | 308° |
| 2026-04-25 15:06 | 53.02300 | 3.57356 | 28212 ft | 411 kts | 320° |
| 2026-04-25 15:06 | 53.04707 | 3.54785 | 28212 ft | 413 kts | 332° |
| 2026-04-25 15:07 | 53.10126 | 3.51503 | 28212 ft | 415 kts | 339° |
| 2026-04-25 15:07 | 53.15576 | 3.48370 | 28205 ft | 414 kts | 339° |
| 2026-04-25 15:08 | 53.21023 | 3.45205 | 28198 ft | 414 kts | 336° |
| 2026-04-25 15:08 | 53.23535 | 3.43045 | 28194 ft | 411 kts | 325° |
| 2026-04-25 15:08 | 53.25734 | 3.40009 | 28191 ft | 410 kts | 313° |
| 2026-04-25 15:09 | 53.29036 | 3.32248 | 28183 ft | 411 kts | 303° |
| 2026-04-25 15:09 | 53.33677 | 3.20171 | 28184 ft | 412 kts | 303° |
| 2026-04-25 15:10 | 53.36766 | 3.12095 | 28192 ft | 412 kts | 303° |
| 2026-04-25 15:11 | 53.41440 | 3.00003 | 28202 ft | 412 kts | 307° |
| 2026-04-25 15:11 | 53.45150 | 2.92650 | 28203 ft | 413 kts | 310° |
| 2026-04-25 15:12 | 53.50765 | 2.81658 | 28210 ft | 414 kts | 310° |
| 2026-04-25 15:12 | 53.53244 | 2.76790 | 28210 ft | 414 kts | 310° |
| 2026-04-25 15:13 | 53.60099 | 2.63288 | 28216 ft | 415 kts | 310° |
| 2026-04-25 15:14 | 53.63840 | 2.55889 | 28213 ft | 415 kts | 310° |
| 2026-04-25 15:14 | 53.67579 | 2.48472 | 28221 ft | 415 kts | 310° |
| 2026-04-25 15:15 | 53.71313 | 2.41042 | 28224 ft | 415 kts | 310° |
| 2026-04-25 15:15 | 53.75044 | 2.33595 | 28220 ft | 416 kts | 310° |
| 2026-04-25 15:16 | 53.78777 | 2.26123 | 28218 ft | 416 kts | 310° |
| 2026-04-25 15:16 | 53.84376 | 2.14871 | 28229 ft | 417 kts | 310° |
| 2026-04-25 15:17 | 53.89976 | 2.03567 | 28234 ft | 418 kts | 310° |
| 2026-04-25 15:18 | 53.93706 | 1.96010 | 28235 ft | 418 kts | 310° |
| 2026-04-25 15:18 | 53.99302 | 1.84627 | 28234 ft | 419 kts | 309° |
| 2026-04-25 15:19 | 54.01769 | 1.79592 | 28237 ft | 419 kts | 309° |
| 2026-04-25 15:19 | 54.06731 | 1.69434 | 28239 ft | 419 kts | 309° |
| 2026-04-25 15:20 | 54.10481 | 1.61729 | 28237 ft | 420 kts | 309° |
| 2026-04-25 15:20 | 54.14205 | 1.54054 | 28244 ft | 420 kts | 309° |
| 2026-04-25 15:21 | 54.17847 | 1.46325 | 28242 ft | 421 kts | 305° |
| 2026-04-25 15:21 | 54.20721 | 1.37619 | 28245 ft | 421 kts | 296° |
| 2026-04-25 15:22 | 54.23310 | 1.28638 | 28248 ft | 421 kts | 296° |
| 2026-04-25 15:22 | 54.25908 | 1.19637 | 28245 ft | 422 kts | 296° |
| 2026-04-25 15:23 | 54.28489 | 1.10627 | 28246 ft | 422 kts | 296° |
| 2026-04-25 15:23 | 54.31064 | 1.01586 | 28247 ft | 423 kts | 296° |
| 2026-04-25 15:24 | 54.33637 | 0.92520 | 28249 ft | 423 kts | 296° |
| 2026-04-25 15:24 | 54.35342 | 0.86495 | 28246 ft | 424 kts | 296° |
| 2026-04-25 15:25 | 54.38775 | 0.74311 | 28248 ft | 424 kts | 296° |
| 2026-04-25 15:25 | 54.41319 | 0.65243 | 28250 ft | 424 kts | 296° |
| 2026-04-25 15:26 | 54.43871 | 0.56107 | 28257 ft | 424 kts | 296° |
| 2026-04-25 15:26 | 54.46422 | 0.46943 | 28257 ft | 425 kts | 295° |
| 2026-04-25 15:27 | 54.48968 | 0.37759 | 28253 ft | 426 kts | 295° |
| 2026-04-25 15:28 | 54.52776 | 0.23952 | 28264 ft | 426 kts | 295° |
| 2026-04-25 15:28 | 54.55309 | 0.14724 | 28265 ft | 426 kts | 295° |
| 2026-04-25 15:29 | 54.57958 | 0.05579 | 28264 ft | 427 kts | 297° |
| 2026-04-25 15:29 | 54.60722 | -0.03489 | 28270 ft | 427 kts | 297° |
| 2026-04-25 15:30 | 54.62998 | -0.11054 | 28260 ft | 427 kts | 297° |
| 2026-04-25 15:30 | 54.66177 | -0.21734 | 28265 ft | 428 kts | 297° |
| 2026-04-25 15:31 | 54.68861 | -0.30803 | 28259 ft | 428 kts | 296° |
| 2026-04-25 15:31 | 54.71577 | -0.40016 | 28259 ft | 429 kts | 296° |
| 2026-04-25 15:32 | 54.74278 | -0.49211 | 28267 ft | 429 kts | 296° |
| 2026-04-25 15:32 | 54.76975 | -0.58430 | 28262 ft | 429 kts | 296° |
| 2026-04-25 15:33 | 54.81006 | -0.72276 | 28263 ft | 429 kts | 296° |
| 2026-04-25 15:33 | 54.83687 | -0.81530 | 28270 ft | 430 kts | 296° |
| 2026-04-25 15:34 | 54.86370 | -0.90823 | 28267 ft | 431 kts | 296° |
| 2026-04-25 15:34 | 54.88160 | -0.97049 | 28265 ft | 432 kts | 296° |
| 2026-04-25 15:35 | 54.93066 | -1.14192 | 28267 ft | 433 kts | 296° |
| 2026-04-25 15:36 | 54.96853 | -1.28447 | 28270 ft | 433 kts | 291° |
| 2026-04-25 15:36 | 54.99128 | -1.38168 | 28270 ft | 434 kts | 291° |
| 2026-04-25 15:37 | 55.01408 | -1.47917 | 28270 ft | 435 kts | 291° |
| 2026-04-25 15:37 | 55.03293 | -1.56040 | 28262 ft | 435 kts | 291° |
| 2026-04-25 15:38 | 55.05554 | -1.65839 | 28268 ft | 436 kts | 291° |
| 2026-04-25 15:38 | 55.07812 | -1.75677 | 28006 ft | 436 kts | 290° |
| 2026-04-25 15:39 | 55.08935 | -1.80583 | 27746 ft | 434 kts | 290° |
| 2026-04-25 15:39 | 55.10051 | -1.85468 | 27435 ft | 432 kts | 290° |
| 2026-04-25 15:39 | 55.11161 | -1.90346 | 26832 ft | 432 kts | 290° |
| 2026-04-25 15:39 | 55.12318 | -1.95126 | 26567 ft | 424 kts | 295° |
| 2026-04-25 15:40 | 55.13747 | -1.99620 | 26391 ft | 425 kts | 299° |
| 2026-04-25 15:40 | 55.14734 | -2.02585 | 26276 ft | 427 kts | 298° |
| 2026-04-25 15:40 | 55.16716 | -2.08585 | 26045 ft | 425 kts | 298° |
| 2026-04-25 15:40 | 55.18188 | -2.13061 | 25853 ft | 424 kts | 298° |
| 2026-04-25 15:41 | 55.19658 | -2.17540 | 25686 ft | 423 kts | 298° |
| 2026-04-25 15:41 | 55.21120 | -2.22001 | 25325 ft | 422 kts | 298° |
| 2026-04-25 15:41 | 55.22582 | -2.26474 | 24571 ft | 426 kts | 298° |
| 2026-04-25 15:41 | 55.24054 | -2.30985 | 24001 ft | 423 kts | 298° |
| 2026-04-25 15:42 | 55.25485 | -2.35371 | 23844 ft | 407 kts | 298° |
| 2026-04-25 15:42 | 55.26863 | -2.39603 | 23677 ft | 392 kts | 298° |
| 2026-04-25 15:42 | 55.28189 | -2.43683 | 23343 ft | 381 kts | 298° |
| 2026-04-25 15:42 | 55.29503 | -2.47743 | 22521 ft | 385 kts | 298° |
| 2026-04-25 15:43 | 55.30826 | -2.51845 | 21716 ft | 385 kts | 298° |
| 2026-04-25 15:43 | 55.32136 | -2.55904 | 20950 ft | 379 kts | 298° |
| 2026-04-25 15:43 | 55.33421 | -2.59889 | 20207 ft | 372 kts | 298° |
| 2026-04-25 15:43 | 55.34682 | -2.63806 | 19473 ft | 365 kts | 298° |
| 2026-04-25 15:44 | 55.35924 | -2.67669 | 18767 ft | 360 kts | 298° |
| 2026-04-25 15:44 | 55.37143 | -2.71465 | 17995 ft | 354 kts | 298° |
| 2026-04-25 15:44 | 55.38343 | -2.75213 | 17196 ft | 349 kts | 298° |
| 2026-04-25 15:44 | 55.39509 | -2.78859 | 16435 ft | 345 kts | 298° |
| 2026-04-25 15:45 | 55.40675 | -2.82512 | 15682 ft | 340 kts | 298° |
| 2026-04-25 15:45 | 55.41824 | -2.86117 | 14942 ft | 336 kts | 298° |
| 2026-04-25 15:45 | 55.42962 | -2.89694 | 14225 ft | 332 kts | 298° |
| 2026-04-25 15:45 | 55.43705 | -2.92033 | 13722 ft | 330 kts | 298° |
| 2026-04-25 15:46 | 55.45217 | -2.96691 | 12655 ft | 325 kts | 304° |
| 2026-04-25 15:46 | 55.46788 | -2.99488 | 11897 ft | 322 kts | 324° |
| 2026-04-25 15:46 | 55.48791 | -3.01179 | 11158 ft | 319 kts | 341° |
| 2026-04-25 15:46 | 55.50903 | -3.02323 | 10434 ft | 316 kts | 342° |
| 2026-04-25 15:47 | 55.52999 | -3.03460 | 9671 ft | 313 kts | 341° |
| 2026-04-25 15:47 | 55.55069 | -3.04592 | 8898 ft | 310 kts | 341° |
| 2026-04-25 15:47 | 55.57119 | -3.05721 | 8136 ft | 307 kts | 341° |
| 2026-04-25 15:47 | 55.59152 | -3.06851 | 7392 ft | 305 kts | 341° |
| 2026-04-25 15:48 | 55.61171 | -3.07976 | 6662 ft | 303 kts | 341° |
| 2026-04-25 15:48 | 55.63178 | -3.09090 | 5898 ft | 301 kts | 341° |
| 2026-04-25 15:48 | 55.65080 | -3.10562 | 5144 ft | 298 kts | 323° |
| 2026-04-25 15:48 | 55.66431 | -3.13178 | 4696 ft | 280 kts | 298° |
| 2026-04-25 15:49 | 55.67037 | -3.16304 | 4515 ft | 262 kts | 276° |
| 2026-04-25 15:49 | 55.66965 | -3.19399 | 4370 ft | 245 kts | 261° |
| 2026-04-25 15:49 | 55.66719 | -3.22338 | 4253 ft | 236 kts | 261° |
| 2026-04-25 15:49 | 55.66494 | -3.25151 | 4235 ft | 224 kts | 262° |
| 2026-04-25 15:50 | 55.66352 | -3.26924 | 4235 ft | 214 kts | 262° |
| 2026-04-25 15:50 | 55.66087 | -3.30168 | 4238 ft | 195 kts | 261° |
| 2026-04-25 15:50 | 55.65880 | -3.32654 | 4223 ft | 205 kts | 261° |
| 2026-04-25 15:50 | 55.65678 | -3.35096 | 4218 ft | 191 kts | 261° |
| 2026-04-25 15:51 | 55.65494 | -3.37321 | 4153 ft | 183 kts | 261° |
| 2026-04-25 15:51 | 55.65367 | -3.38854 | 4075 ft | 188 kts | 261° |
| 2026-04-25 15:51 | 55.65115 | -3.41881 | 3958 ft | 183 kts | 261° |
| 2026-04-25 15:51 | 55.64928 | -3.44121 | 3956 ft | 185 kts | 261° |
| 2026-04-25 15:52 | 55.64742 | -3.46351 | 3957 ft | 187 kts | 260° |
| 2026-04-25 15:52 | 55.64548 | -3.48608 | 3957 ft | 184 kts | 260° |
| 2026-04-25 15:52 | 55.64354 | -3.50870 | 3959 ft | 186 kts | 260° |
| 2026-04-25 15:52 | 55.64157 | -3.53138 | 3935 ft | 185 kts | 261° |
| 2026-04-25 15:53 | 55.64074 | -3.55420 | 3950 ft | 190 kts | 279° |
| 2026-04-25 15:53 | 55.64702 | -3.57439 | 3768 ft | 190 kts | 315° |
| 2026-04-25 15:53 | 55.65708 | -3.58977 | 3525 ft | 192 kts | 320° |
| 2026-04-25 15:53 | 55.66752 | -3.60465 | 3272 ft | 192 kts | 321° |
| 2026-04-25 15:54 | 55.67794 | -3.61958 | 3054 ft | 192 kts | 321° |
| 2026-04-25 15:54 | 55.68819 | -3.63445 | 2952 ft | 190 kts | 321° |
| 2026-04-25 15:54 | 55.69837 | -3.64941 | 2959 ft | 192 kts | 321° |
| 2026-04-25 15:54 | 55.70871 | -3.66483 | 2956 ft | 194 kts | 321° |
| 2026-04-25 15:55 | 55.71894 | -3.68012 | 2957 ft | 192 kts | 321° |
| 2026-04-25 15:55 | 55.72922 | -3.69559 | 2960 ft | 195 kts | 320° |
| 2026-04-25 15:55 | 55.73942 | -3.71107 | 2972 ft | 193 kts | 320° |
| 2026-04-25 15:55 | 55.74968 | -3.72666 | 2960 ft | 193 kts | 320° |
| 2026-04-25 15:56 | 55.75986 | -3.74195 | 2968 ft | 193 kts | 321° |
| 2026-04-25 15:56 | 55.77023 | -3.75726 | 2959 ft | 193 kts | 325° |
| 2026-04-25 15:56 | 55.78268 | -3.76436 | 2969 ft | 190 kts | 1° |
| 2026-04-25 15:56 | 55.79578 | -3.76154 | 2957 ft | 188 kts | 13° |
| 2026-04-25 15:57 | 55.80819 | -3.75455 | 2974 ft | 189 kts | 25° |
| 2026-04-25 15:57 | 55.81938 | -3.74243 | 2961 ft | 186 kts | 42° |
| 2026-04-25 15:57 | 55.82840 | -3.72606 | 2973 ft | 186 kts | 52° |
| 2026-04-25 15:57 | 55.83601 | -3.70755 | 2972 ft | 186 kts | 58° |
| 2026-04-25 15:58 | 55.84289 | -3.68806 | 2977 ft | 186 kts | 60° |
| 2026-04-25 15:58 | 55.84953 | -3.66850 | 2977 ft | 183 kts | 60° |
| 2026-04-25 15:58 | 55.85617 | -3.64881 | 2993 ft | 187 kts | 60° |
| 2026-04-25 15:58 | 55.86294 | -3.62920 | 2971 ft | 180 kts | 60° |
| 2026-04-25 15:59 | 55.86904 | -3.61122 | 2986 ft | 163 kts | 60° |
| 2026-04-25 15:59 | 55.87488 | -3.59400 | 2890 ft | 165 kts | 60° |
| 2026-04-25 15:59 | 55.88083 | -3.57648 | 2664 ft | 162 kts | 61° |
| 2026-04-25 15:59 | 55.88643 | -3.55995 | 2477 ft | 154 kts | 61° |
| 2026-04-25 16:00 | 55.89221 | -3.54321 | 2252 ft | 159 kts | 62° |
| 2026-04-25 16:00 | 55.89406 | -3.53753 | 2179 ft | 157 kts | 62° |
| 2026-04-25 16:00 | 55.90288 | -3.51138 | 1833 ft | 136 kts | 61° |
| 2026-04-25 16:00 | 55.90748 | -3.49752 | 1657 ft | 127 kts | 60° |
| 2026-04-25 16:01 | 55.91207 | -3.48428 | 1482 ft | 124 kts | 63° |
| 2026-04-25 16:01 | 55.91674 | -3.47112 | 1439 ft | 128 kts | 60° |
| 2026-04-25 16:01 | 55.92194 | -3.45656 | 1325 ft | 150 kts | 62° |
| 2026-04-25 16:01 | 55.92683 | -3.44084 | 980 ft | 141 kts | 60° |
| 2026-04-25 16:02 | 55.93180 | -3.42651 | 711 ft | 132 kts | 60° |
| 2026-04-25 16:02 | 55.93633 | -3.41274 | 475 ft | 125 kts | 58° |
| 2026-04-25 16:02 | 55.94071 | -3.39982 | 307 ft | 120 kts | 58° |
| 2026-04-25 16:02 | 55.94498 | -3.38734 | 152 ft | 114 kts | 58° |
| 2026-04-25 16:03 | 55.94862 | -3.37660 | 112 ft | 68 kts | 58° |
| 2026-04-25 16:03 | 55.94960 | -3.37370 | 112 ft | 0 kts | 60° |
| 2026-04-25 16:03 | 55.94968 | -3.37346 | 109 ft | 7 kts | 60° |
| 2026-04-25 16:03 | 55.95003 | -3.37237 | 110 ft | 13 kts | 59° |
| 2026-04-25 16:04 | 55.95059 | -3.37073 | 113 ft | 17 kts | 58° |
| 2026-04-25 16:04 | 55.95125 | -3.36885 | 111 ft | 19 kts | 58° |
| 2026-04-25 16:04 | 55.95194 | -3.36673 | 113 ft | 21 kts | 61° |
| 2026-04-25 16:04 | 55.95249 | -3.36446 | 111 ft | 10 kts | 101° |
| 2026-04-25 16:05 | 55.95209 | -3.36364 | 113 ft | 8 kts | 153° |
| 2026-04-25 16:05 | 55.95189 | -3.36346 | 114 ft | 0 kts | 153° |
| 2026-04-25 16:05 | 55.95186 | -3.36344 | 114 ft | 2 kts | 153° |
| 2026-04-25 16:06 | 55.95163 | -3.36319 | 114 ft | 6 kts | 149° |
| 2026-04-25 16:06 | 55.95139 | -3.36246 | 114 ft | 9 kts | 111° |
| 2026-04-25 16:06 | 55.95117 | -3.36124 | 113 ft | 12 kts | 103° |
| 2026-04-25 16:06 | 55.95092 | -3.35987 | 114 ft | 7 kts | 114° |
| 2026-04-25 16:07 | 55.95060 | -3.35887 | 115 ft | 11 kts | 120° |
| 2026-04-25 16:07 | 55.95044 | -3.35849 | 113 ft | 12 kts | 133° |
| 2026-04-25 16:07 | 55.94920 | -3.35810 | 113 ft | 13 kts | 120° |
| 2026-04-25 16:07 | 55.94873 | -3.35660 | 115 ft | 10 kts | 119° |
| 2026-04-25 16:08 | 55.94842 | -3.35624 | 114 ft | 1 kts | 214° |
| 2026-04-25 16:08 | 55.94824 | -3.35651 | 113 ft | 6 kts | 219° |
| 2026-04-25 16:08 | 55.94789 | -3.35689 | 115 ft | 0 kts | 208° |